Time;durP1;ratioP1;P1;durP2;ratioP2;P2;SDS_P1;SDS_P2;PMS_P1;PMS_P2;Temp;Humidity;BMP_temperature;BMP_pressure;BME280_temperature;BME280_humidity;BME280_pressure;Samples;Min_cycle;Max_cycle;Signal;HPM_P1;HPM_P2
2024/04/03 00:01:57;;;;;;;3.47;1.17;;;7.90;99.90;;;;;;5064572;28;20198;-80
2024/04/03 00:04:45;;;;;;;4.27;1.90;;;7.90;99.90;;;;;;5062104;28;20208;-80
2024/04/03 00:07:31;;;;;;;2.30;1.40;;;7.80;99.90;;;;;;5057609;28;20207;-81
2024/04/03 00:10:18;;;;;;;3.23;1.63;;;7.80;99.90;;;;;;5069316;28;20233;-79
2024/04/03 00:13:05;;;;;;;3.27;1.30;;;7.80;98.10;;;;;;5057767;28;20223;-79
2024/04/03 00:15:51;;;;;;;6.10;1.90;;;7.70;99.90;;;;;;5061096;28;20216;-78
2024/04/03 00:18:40;;;;;;;7.83;1.87;;;7.70;1.00;;;;;;5059742;28;20633;-78
2024/04/03 00:21:26;;;;;;;4.27;1.90;;;7.70;60.40;;;;;;5063624;28;20688;-79
2024/04/03 00:24:13;;;;;;;5.67;1.80;;;7.70;1.00;;;;;;5063179;28;20206;-79
2024/04/03 00:27:00;;;;;;;3.60;1.60;;;7.70;1.00;;;;;;5062464;28;20202;-80
2024/04/03 00:29:47;;;;;;;4.47;1.33;;;7.70;1.00;;;;;;5068443;28;20643;-78
2024/04/03 00:32:33;;;;;;;5.53;1.63;;;7.50;11.90;;;;;;5066732;28;20228;-78
2024/04/03 00:35:22;;;;;;;4.93;1.73;;;7.60;1.00;;;;;;5066897;28;20666;-79
2024/04/03 00:38:08;;;;;;;2.77;1.23;;;7.60;1.00;;;;;;5061865;28;20232;-77
2024/04/03 00:40:57;;;;;;;3.03;1.60;;;7.60;1.00;;;;;;5066517;28;20236;-78
2024/04/03 00:43:43;;;;;;;4.87;1.77;;;7.60;1.00;;;;;;5062610;28;20211;-79
2024/04/03 00:46:30;;;;;;;3.53;1.50;;;7.50;1.00;;;;;;5066634;28;20232;-79
2024/04/03 00:49:16;;;;;;;1.23;0.83;;;7.50;1.00;;;;;;5062422;28;20260;-79
2024/04/03 00:52:05;;;;;;;2.53;1.30;;;7.50;1.00;;;;;;5065340;28;20827;-78
2024/04/03 00:54:51;;;;;;;4.33;1.47;;;7.40;1.00;;;;;;5064201;28;20193;-78
2024/04/03 00:57:39;;;;;;;3.03;1.40;;;7.50;1.00;;;;;;5068064;28;20201;-79
2024/04/03 01:00:25;;;;;;;2.83;1.27;;;7.50;1.00;;;;;;5058829;28;20193;-77
2024/04/03 01:03:12;;;;;;;2.67;0.93;;;7.40;1.00;;;;;;5068040;28;20621;-79
2024/04/03 01:06:00;;;;;;;8.83;1.43;;;7.40;1.00;;;;;;5067993;28;20209;-77
2024/04/03 01:08:49;;;;;;;3.73;1.67;;;7.40;1.00;;;;;;5059609;28;20738;-80
2024/04/03 01:11:36;;;;;;;3.33;1.37;;;7.50;1.00;;;;;;5066387;28;20270;-79
2024/04/03 01:14:23;;;;;;;4.47;1.50;;;7.30;1.00;;;;;;5059723;28;20189;-78
2024/04/03 01:17:09;;;;;;;3.10;1.33;;;7.40;1.00;;;;;;5064170;28;20198;-78
2024/04/03 01:19:57;;;;;;;3.10;1.50;;;7.40;1.00;;;;;;5062649;28;20200;-78
2024/04/03 01:22:44;;;;;;;2.83;1.03;;;7.30;1.00;;;;;;5061123;28;20189;-76
2024/04/03 01:25:31;;;;;;;1.73;0.60;;;7.40;1.00;;;;;;5062392;28;20205;-78
2024/04/03 01:28:19;;;;;;;2.40;1.17;;;7.30;1.00;;;;;;5065946;28;20266;-77
2024/04/03 01:31:06;;;;;;;3.13;1.30;;;7.30;1.00;;;;;;5067687;28;20216;-77
2024/04/03 01:33:53;;;;;;;6.17;1.30;;;7.30;1.00;;;;;;5063623;28;20359;-78
2024/04/03 01:36:39;;;;;;;2.47;1.20;;;7.20;11.40;;;;;;5058044;28;20220;-77
2024/04/03 01:39:27;;;;;;;7.80;1.60;;;7.20;1.00;;;;;;5053208;28;20310;-78
2024/04/03 01:42:15;;;;;;;2.73;1.40;;;7.20;1.00;;;;;;5066390;28;20230;-77
2024/04/03 01:45:03;;;;;;;1.90;1.20;;;7.20;57.10;;;;;;5066383;28;20212;-77
2024/04/03 01:47:49;;;;;;;3.37;1.43;;;7.20;1.00;;;;;;5067765;28;20655;-77
2024/04/03 01:50:37;;;;;;;3.47;1.30;;;7.20;1.00;;;;;;5062173;28;20193;-78
2024/04/03 01:53:24;;;;;;;6.80;1.70;;;7.20;26.10;;;;;;5057926;28;20228;-78
2024/04/03 01:56:10;;;;;;;5.07;1.40;;;7.20;1.00;;;;;;5064078;28;20208;-78
2024/04/03 01:58:59;;;;;;;5.67;1.83;;;7.30;65.00;;;;;;5065911;28;20196;-77
2024/04/03 02:01:45;;;;;;;4.87;1.80;;;7.20;61.20;;;;;;5063393;28;20645;-77
2024/04/03 02:04:32;;;;;;;2.70;1.30;;;7.30;1.00;;;;;;5064006;28;20644;-77
2024/04/03 02:07:18;;;;;;;2.43;1.60;;;7.20;99.90;;;;;;5066724;28;20212;-79
2024/04/03 02:10:06;;;;;;;8.00;1.53;;;7.30;1.00;;;;;;5060094;28;20271;-78
2024/04/03 02:12:53;;;;;;;3.93;1.40;;;7.40;1.00;;;;;;5061815;28;20212;-78
2024/04/03 02:15:41;;;;;;;9.37;1.80;;;7.40;1.00;;;;;;5064471;28;20193;-78
2024/04/03 02:18:28;;;;;;;4.57;1.53;;;7.40;1.00;;;;;;5067093;28;20216;-77
2024/04/03 02:21:15;;;;;;;6.93;1.33;;;7.40;1.00;;;;;;5060676;28;20246;-78
2024/04/03 02:24:01;;;;;;;3.37;1.50;;;7.40;1.00;;;;;;5063109;28;20197;-78
2024/04/03 02:26:48;;;;;;;3.07;1.80;;;7.40;1.00;;;;;;5063133;28;20184;-77
2024/04/03 02:29:34;;;;;;;1.90;0.83;;;7.40;1.00;;;;;;5059582;28;20208;-78
2024/04/03 02:32:23;;;;;;;3.83;1.47;;;7.50;1.00;;;;;;5063617;28;20284;-78
2024/04/03 02:35:09;;;;;;;4.00;1.53;;;7.50;4.70;;;;;;5059660;28;20193;-79
2024/04/03 02:37:57;;;;;;;2.93;1.50;;;7.50;1.00;;;;;;5066380;28;20279;-77
2024/04/03 02:40:43;;;;;;;5.63;1.90;;;7.50;1.00;;;;;;5052696;28;20237;-78
2024/04/03 02:43:30;;;;;;;3.23;1.30;;;7.50;1.00;;;;;;5064514;28;20198;-78
2024/04/03 02:46:16;;;;;;;6.87;1.60;;;7.50;8.40;;;;;;5066226;28;20237;-79
2024/04/03 02:49:05;;;;;;;2.87;0.90;;;7.50;99.90;;;;;;5064201;28;20249;-76
2024/04/03 02:51:51;;;;;;;7.07;1.50;;;7.30;99.90;;;;;;5058570;28;20209;-77
2024/04/03 02:54:39;;;;;;;9.57;1.70;;;7.30;1.00;;;;;;5063482;28;20225;-77
2024/04/03 02:57:25;;;;;;;3.60;2.13;;;7.30;1.00;;;;;;5064430;28;20209;-78
2024/04/03 03:00:13;;;;;;;3.30;1.30;;;7.20;1.00;;;;;;5060032;28;20220;-76
2024/04/03 03:02:59;;;;;;;6.57;1.80;;;7.30;1.00;;;;;;5064919;28;20205;-77
2024/04/03 03:05:50;;;;;;;6.57;2.10;;;7.40;99.90;;;;;;5066699;28;20229;-77
2024/04/03 03:08:36;;;;;;;6.03;2.10;;;7.30;1.00;;;;;;5064664;28;20206;-77
2024/04/03 03:11:23;;;;;;;4.83;2.23;;;7.30;1.00;;;;;;5064308;28;20227;-78
2024/04/03 03:14:09;;;;;;;4.30;2.13;;;7.40;1.00;;;;;;5068270;28;20214;-78
2024/04/03 03:16:57;;;;;;;4.40;1.83;;;7.50;1.00;;;;;;5067846;28;20667;-78
2024/04/03 03:19:43;;;;;;;7.37;2.20;;;7.40;99.90;;;;;;5069063;28;20668;-76
2024/04/03 03:22:32;;;;;;;5.43;1.90;;;7.40;99.90;;;;;;5063267;28;20232;-77
2024/04/03 03:25:19;;;;;;;7.20;2.30;;;7.50;99.90;;;;;;5068352;28;20221;-78
2024/04/03 03:28:06;;;;;;;3.70;1.93;;;7.50;99.90;;;;;;5063996;28;20229;-78
2024/04/03 03:30:53;;;;;;;4.00;1.57;;;7.50;1.00;;;;;;5069388;28;20202;-78
2024/04/03 03:33:41;;;;;;;5.03;1.40;;;7.60;1.00;;;;;;5063978;28;20246;-77
2024/04/03 03:36:28;;;;;;;5.80;1.20;;;7.60;88.60;;;;;;5068069;28;20216;-78
2024/04/03 03:39:17;;;;;;;3.33;0.70;;;7.60;1.00;;;;;;5063267;28;20230;-77
2024/04/03 03:42:04;;;;;;;4.23;1.47;;;7.70;1.00;;;;;;5062061;28;20205;-78
2024/04/03 03:44:52;;;;;;;3.50;1.23;;;7.60;1.00;;;;;;5057911;28;20260;-78
2024/04/03 03:47:38;;;;;;;4.10;1.30;;;7.40;99.90;;;;;;5064509;28;20201;-77
2024/04/03 03:53:31;;;;;;;3.13;1.60;;;7.30;81.80;;;;;;5065758;28;20212;-77
2024/04/03 03:56:19;;;;;;;4.17;1.80;;;7.50;1.00;;;;;;5060538;28;20204;-78
2024/04/03 03:59:07;;;;;;;4.60;2.17;;;7.40;2.90;;;;;;5063455;28;20219;-79
2024/04/03 04:01:54;;;;;;;3.10;1.50;;;7.50;1.00;;;;;;5062381;28;20196;-78
2024/04/03 04:04:41;;;;;;;6.43;2.73;;;7.50;1.00;;;;;;5059893;28;20194;-78
2024/04/03 04:07:29;;;;;;;5.37;2.30;;;7.50;1.00;;;;;;5063520;28;20201;-78
2024/04/03 04:10:15;;;;;;;5.40;2.03;;;7.50;1.00;;;;;;5066096;28;20751;-81
2024/04/03 04:13:04;;;;;;;4.63;1.30;;;7.50;1.00;;;;;;5064262;28;20227;-77
2024/04/03 04:15:51;;;;;;;5.43;1.50;;;7.50;1.00;;;;;;5060974;28;20206;-77
2024/04/03 04:18:38;;;;;;;3.40;1.70;;;7.50;1.00;;;;;;5061603;28;20191;-77
2024/04/03 04:21:26;;;;;;;6.10;1.87;;;7.50;9.50;;;;;;5067748;28;20689;-83
2024/04/03 04:24:14;;;;;;;5.30;1.97;;;7.40;1.00;;;;;;5065757;28;20194;-80
2024/04/03 04:27:04;;;;;;;1.90;1.10;;;7.50;1.00;;;;;;5062759;28;20201;-81
2024/04/03 04:29:52;;;;;;;3.93;1.73;;;7.50;1.00;;;;;;5067169;28;20201;-76
2024/04/03 04:32:39;;;;;;;5.50;1.80;;;7.50;1.00;;;;;;5058656;28;20197;-79
2024/04/03 04:35:25;;;;;;;1.20;0.77;;;7.60;1.00;;;;;;5068566;28;20193;-77
2024/04/03 04:38:12;;;;;;;6.03;1.20;;;7.70;99.90;;;;;;5071126;28;20327;-77
2024/04/03 04:40:59;;;;;;;3.20;1.00;;;7.70;1.00;;;;;;5067630;28;20365;-78
2024/04/03 04:43:46;;;;;;;7.00;1.47;;;7.80;99.90;;;;;;5063765;28;20221;-78
2024/04/03 04:46:34;;;;;;;5.33;1.60;;;7.80;99.90;;;;;;5064371;28;20206;-76
2024/04/03 04:49:22;;;;;;;4.10;1.20;;;7.80;99.90;;;;;;5062917;28;20210;-77
2024/04/03 04:52:09;;;;;;;8.57;1.57;;;7.90;99.90;;;;;;5060857;28;20208;-78
2024/04/03 04:54:55;;;;;;;3.83;1.20;;;7.80;99.90;;;;;;5061353;28;20605;-78
2024/04/03 04:57:42;;;;;;;5.97;1.43;;;7.90;99.90;;;;;;5063262;28;20293;-76
2024/04/03 05:00:29;;;;;;;3.63;1.30;;;7.90;99.90;;;;;;5061473;28;20551;-77
2024/04/03 05:03:17;;;;;;;4.00;1.50;;;7.90;1.00;;;;;;5062083;28;20290;-77
2024/04/03 05:06:04;;;;;;;3.90;1.23;;;7.90;52.50;;;;;;5062821;28;20204;-78
2024/04/03 05:08:51;;;;;;;2.80;1.20;;;8.00;1.00;;;;;;5061588;28;20565;-78
2024/04/03 05:11:37;;;;;;;3.63;1.73;;;8.00;1.00;;;;;;5055632;28;20201;-78
2024/04/03 05:14:24;;;;;;;1.13;0.70;;;8.00;1.00;;;;;;5068131;28;20733;-77
2024/04/03 05:17:11;;;;;;;4.63;0.90;;;8.00;1.00;;;;;;5061706;28;20681;-76
2024/04/03 05:19:59;;;;;;;4.70;1.63;;;8.10;1.00;;;;;;5065574;28;20192;-78
2024/04/03 05:22:45;;;;;;;3.27;1.77;;;8.10;1.00;;;;;;5067824;28;20684;-76
2024/04/03 05:25:33;;;;;;;4.00;1.50;;;8.10;99.90;;;;;;5066827;28;20681;-76
2024/04/03 05:28:19;;;;;;;3.60;1.43;;;8.20;99.90;;;;;;5061191;28;20201;-78
2024/04/03 05:31:07;;;;;;;5.60;1.70;;;8.30;99.90;;;;;;5068715;28;20285;-76
2024/04/03 05:33:53;;;;;;;2.97;0.90;;;8.40;1.00;;;;;;5065807;28;20630;-77
2024/04/03 05:36:41;;;;;;;6.10;1.97;;;8.30;99.90;;;;;;5064285;28;20583;-77
2024/04/03 05:39:29;;;;;;;4.53;1.07;;;8.20;99.90;;;;;;5064683;28;20233;-76
2024/04/03 05:42:15;;;;;;;6.07;1.70;;;8.20;99.90;;;;;;5059710;28;20578;-76
2024/04/03 05:45:03;;;;;;;4.90;1.50;;;8.20;99.90;;;;;;5065708;28;20638;-65
2024/04/03 05:47:49;;;;;;;7.80;1.50;;;8.20;99.90;;;;;;5064484;28;20272;-65
2024/04/03 05:50:36;;;;;;;7.07;1.87;;;8.10;99.90;;;;;;5063413;28;20186;-65
2024/04/03 05:53:24;;;;;;;6.17;1.80;;;8.20;99.90;;;;;;5064381;28;20642;-65
2024/04/03 05:56:11;;;;;;;6.03;1.47;;;8.20;1.00;;;;;;5064992;28;20926;-65
2024/04/03 05:58:57;;;;;;;2.40;1.47;;;8.20;99.90;;;;;;5054534;28;20210;-65
2024/04/03 06:01:45;;;;;;;2.63;1.50;;;8.10;99.90;;;;;;5058193;28;20672;-65
2024/04/03 06:04:32;;;;;;;2.87;0.90;;;8.20;1.00;;;;;;5061731;28;20699;-66
2024/04/03 06:07:19;;;;;;;3.60;1.30;;;8.20;99.90;;;;;;5062612;28;20206;-65
2024/04/03 06:10:08;;;;;;;5.70;1.10;;;8.20;99.90;;;;;;5059756;28;20246;-65
2024/04/03 06:12:54;;;;;;;3.33;1.30;;;8.20;1.00;;;;;;5062959;28;20576;-65
2024/04/03 06:15:41;;;;;;;1.83;0.67;;;8.20;99.90;;;;;;5067440;28;20558;-65
2024/04/03 06:18:27;;;;;;;4.93;1.33;;;8.30;99.90;;;;;;5064163;28;20207;-65
2024/04/03 06:21:15;;;;;;;5.80;1.23;;;8.40;99.90;;;;;;5061189;28;20674;-65
2024/04/03 06:24:03;;;;;;;7.80;1.70;;;8.40;1.00;;;;;;5061695;28;20554;-67
2024/04/03 06:26:51;;;;;;;4.87;1.40;;;8.40;1.00;;;;;;5066607;28;20204;-66
2024/04/03 06:29:38;;;;;;;4.57;1.33;;;8.50;1.00;;;;;;5058664;28;20193;-66
2024/04/03 06:32:26;;;;;;;2.83;0.87;;;8.50;99.90;;;;;;5067379;28;20198;-66
2024/04/03 06:35:12;;;;;;;1.93;0.70;;;8.50;1.00;;;;;;5065468;28;20225;-66
2024/04/03 06:37:59;;;;;;;1.83;0.97;;;8.60;1.00;;;;;;5064642;28;20314;-67
2024/04/03 06:40:45;;;;;;;5.00;1.27;;;8.60;1.00;;;;;;5051031;28;20228;-66
2024/04/03 06:43:34;;;;;;;2.93;1.37;;;8.60;1.00;;;;;;5065436;28;20230;-67
2024/04/03 06:46:20;;;;;;;1.93;0.87;;;8.60;1.00;;;;;;5067270;28;20666;-65
2024/04/03 06:49:10;;;;;;;3.13;1.30;;;8.80;99.90;;;;;;5069196;28;20285;-66
2024/04/03 06:51:56;;;;;;;2.80;0.83;;;9.00;99.90;;;;;;5065441;28;20210;-65
2024/04/03 06:54:43;;;;;;;8.17;1.27;;;9.20;99.90;;;;;;5067889;28;20553;-66
2024/04/03 06:57:31;;;;;;;4.80;1.70;;;9.40;99.90;;;;;;5058085;28;20472;-67
2024/04/03 07:00:19;;;;;;;4.23;1.57;;;9.40;1.00;;;;;;5060704;28;20671;-66
2024/04/03 07:03:06;;;;;;;12.47;1.40;;;9.50;99.90;;;;;;5076032;28;20294;-66
2024/04/03 07:05:53;;;;;;;3.87;0.77;;;9.60;1.00;;;;;;5062734;28;20210;-68
2024/04/03 07:08:40;;;;;;;1.20;0.40;;;9.60;1.00;;;;;;5065852;28;20245;-66
2024/04/03 07:11:29;;;;;;;4.33;1.57;;;9.70;1.00;;;;;;5067914;28;20197;-66
2024/04/03 07:14:17;;;;;;;6.40;1.47;;;9.90;1.00;;;;;;5071843;28;20967;-66
2024/04/03 07:17:06;;;;;;;7.23;1.40;;;10.10;1.00;;;;;;5057196;28;20200;-67
2024/04/03 07:19:53;;;;;;;2.83;1.33;;;10.00;1.00;;;;;;5069002;28;20581;-66
2024/04/03 07:22:39;;;;;;;5.53;1.13;;;10.30;1.00;;;;;;5066886;28;20199;-66
2024/04/03 07:25:26;;;;;;;3.47;1.00;;;10.40;99.90;;;;;;5068889;28;20276;-66
2024/04/03 07:28:13;;;;;;;7.67;1.27;;;10.30;99.90;;;;;;5056259;28;20209;-66
2024/04/03 07:31:00;;;;;;;5.83;1.40;;;10.30;99.90;;;;;;5075430;28;20200;-67
2024/04/03 07:33:47;;;;;;;1.97;1.00;;;10.40;99.90;;;;;;5063887;28;20224;-66
2024/04/03 07:36:35;;;;;;;3.83;1.03;;;10.40;99.90;;;;;;5071644;28;20199;-67
2024/04/03 07:39:22;;;;;;;4.43;1.10;;;10.50;45.80;;;;;;5060725;28;20229;-66
2024/04/03 07:42:09;;;;;;;4.30;1.00;;;10.50;99.90;;;;;;5057634;28;20212;-66
2024/04/03 07:44:56;;;;;;;6.70;1.30;;;10.60;75.40;;;;;;5066435;28;20197;-67
2024/04/03 07:47:43;;;;;;;5.23;1.10;;;10.70;99.90;;;;;;5072668;28;20198;-66
2024/04/03 07:50:32;;;;;;;6.53;1.63;;;10.80;99.90;;;;;;5066321;28;20200;-66
2024/04/03 07:53:18;;;;;;;7.10;1.30;;;10.90;1.00;;;;;;5059636;28;20295;-66
2024/04/03 07:56:06;;;;;;;4.87;1.10;;;10.90;1.00;;;;;;5066729;28;20594;-66
2024/04/03 07:58:52;;;;;;;3.50;1.03;;;10.90;52.30;;;;;;5060143;28;20211;-66
2024/04/03 08:01:39;;;;;;;3.37;1.20;;;11.20;45.70;;;;;;5075358;28;20556;-66
2024/04/03 08:04:25;;;;;;;6.33;1.30;;;11.50;1.00;;;;;;5071916;28;20202;-66
2024/04/03 08:07:14;;;;;;;6.93;1.40;;;11.10;1.00;;;;;;5069498;28;20199;-66
2024/04/03 08:10:00;;;;;;;3.30;1.10;;;11.00;1.00;;;;;;5052850;28;20677;-66
2024/04/03 08:12:48;;;;;;;2.97;0.60;;;11.20;99.90;;;;;;5063620;28;20196;-66
2024/04/03 08:15:34;;;;;;;4.77;1.10;;;11.20;1.00;;;;;;5068816;28;20578;-67
2024/04/03 08:18:21;;;;;;;5.40;1.60;;;11.40;1.00;;;;;;5062130;28;20284;-66
2024/04/03 08:21:09;;;;;;;3.83;1.03;;;11.70;1.00;;;;;;5067736;28;20198;-65
2024/04/03 08:23:58;;;;;;;3.83;1.07;;;11.60;1.00;;;;;;5064950;28;20189;-65
2024/04/03 08:26:45;;;;;;;9.30;1.30;;;11.70;1.00;;;;;;5054285;28;20567;-66
2024/04/03 08:29:37;;;;;;;7.60;1.20;;;12.20;1.00;;;;;;5073049;28;20223;-66
2024/04/03 08:32:23;;;;;;;9.67;1.00;;;12.10;99.90;;;;;;5068098;28;20725;-67
2024/04/03 08:35:11;;;;;;;4.53;0.87;;;12.10;99.90;;;;;;5064316;28;20232;-66
2024/04/03 08:37:57;;;;;;;2.70;1.10;;;12.30;99.90;;;;;;5067084;28;20300;-65
2024/04/03 08:40:53;;;;;;;5.03;1.30;;;12.10;99.90;;;;;;5067709;28;20241;-66
2024/04/03 08:43:40;;;;;;;2.80;0.83;;;12.20;99.90;;;;;;5065520;28;20208;-66
2024/04/03 08:46:28;;;;;;;10.13;1.30;;;11.90;99.90;;;;;;5055791;28;20216;-67
2024/04/03 08:49:16;;;;;;;4.17;1.00;;;12.00;99.90;;;;;;5061799;28;20324;-67
2024/04/03 08:52:03;;;;;;;6.03;1.00;;;12.30;99.90;;;;;;5061692;28;20211;-66
2024/04/03 08:54:51;;;;;;;7.70;1.30;;;12.50;99.90;;;;;;5057348;28;20235;-67
2024/04/03 08:57:38;;;;;;;5.47;0.70;;;13.20;99.90;;;;;;5064420;28;20226;-66
2024/04/03 09:00:26;;;;;;;6.03;1.10;;;12.70;99.90;;;;;;5056772;28;20213;-66
2024/04/03 09:03:13;;;;;;;4.20;0.80;;;12.60;99.90;;;;;;5060325;28;20215;-66
2024/04/03 09:06:00;;;;;;;2.33;0.70;;;12.50;99.90;;;;;;5060512;28;20193;-66
2024/04/03 09:08:46;;;;;;;6.20;1.00;;;12.90;34.10;;;;;;5065295;28;20205;-67
2024/04/03 09:11:33;;;;;;;2.77;0.80;;;12.90;1.00;;;;;;5057184;28;20225;-66
2024/04/03 09:14:21;;;;;;;5.13;1.17;;;13.20;1.00;;;;;;5068332;28;20221;-66
2024/04/03 09:17:09;;;;;;;4.73;1.03;;;13.70;99.90;;;;;;5063416;28;20206;-66
2024/04/03 09:19:55;;;;;;;6.30;1.17;;;13.10;1.00;;;;;;5061143;28;20203;-66
2024/04/03 09:22:42;;;;;;;5.20;0.93;;;13.10;1.00;;;;;;5058802;28;20201;-66
2024/04/03 09:25:30;;;;;;;3.57;0.80;;;13.40;1.00;;;;;;5059037;28;20197;-66
2024/04/03 09:28:17;;;;;;;8.33;1.00;;;13.70;1.00;;;;;;5065949;28;20279;-66
2024/04/03 09:31:05;;;;;;;2.13;0.57;;;13.90;1.00;;;;;;5066674;28;20206;-65
2024/04/03 09:33:52;;;;;;;8.20;0.70;;;13.60;1.00;;;;;;5053785;28;20287;-66
2024/04/03 09:36:40;;;;;;;3.27;0.90;;;13.40;1.00;;;;;;5067740;28;20188;-66
2024/04/03 09:39:26;;;;;;;5.57;1.00;;;13.50;1.00;;;;;;5068502;28;20720;-67
2024/04/03 09:42:13;;;;;;;4.50;1.00;;;13.40;1.00;;;;;;5053339;28;20248;-66
2024/04/03 09:45:00;;;;;;;5.47;0.90;;;13.60;1.00;;;;;;5062248;28;20656;-66
2024/04/03 09:47:48;;;;;;;5.07;1.27;;;13.50;1.00;;;;;;5074021;28;20207;-68
2024/04/03 09:50:37;;;;;;;1.93;0.83;;;13.60;1.00;;;;;;5062805;28;20875;-66
2024/04/03 09:53:27;;;;;;;4.20;0.90;;;13.90;1.00;;;;;;5065063;28;20226;-66
2024/04/03 09:56:16;;;;;;;4.23;0.50;;;14.30;1.00;;;;;;5059390;28;20203;-65
2024/04/03 09:59:03;;;;;;;3.40;0.63;;;14.40;1.00;;;;;;5059549;28;20311;-66
2024/04/03 10:01:51;;;;;;;1.80;0.83;;;13.90;1.00;;;;;;5061954;28;20695;-65
2024/04/03 10:04:40;;;;;;;4.53;1.07;;;13.50;1.00;;;;;;5057119;28;20232;-65
2024/04/03 10:07:30;;;;;;;6.20;0.90;;;13.40;1.00;;;;;;5062117;28;20690;-66
2024/04/03 10:10:18;;;;;;;3.17;0.80;;;13.50;1.00;;;;;;5064345;28;20246;-65
2024/04/03 10:13:05;;;;;;;3.53;0.97;;;13.90;1.00;;;;;;5062305;28;20652;-66
2024/04/03 10:16:01;;;;;;;2.67;0.60;;;14.00;1.00;;;;;;5057504;28;20765;-66
2024/04/03 10:18:51;;;;;;;3.40;0.80;;;14.10;1.00;;;;;;5069851;28;20206;-66
2024/04/03 10:21:38;;;;;;;3.13;0.70;;;14.00;1.00;;;;;;5066418;28;20666;-66
2024/04/03 10:24:26;;;;;;;3.50;1.10;;;14.70;1.00;;;;;;5066017;28;20206;-66
2024/04/03 10:27:12;;;;;;;2.73;0.60;;;14.00;1.00;;;;;;5062312;28;20206;-67
2024/04/03 10:30:06;;;;;;;3.80;0.90;;;13.80;1.00;;;;;;5067596;28;20240;-65
2024/04/03 10:32:53;;;;;;;2.43;0.97;;;13.40;1.00;;;;;;5066897;28;20243;-66
2024/04/03 10:35:40;;;;;;;5.30;0.63;;;13.50;1.00;;;;;;5062809;28;20224;-66
2024/04/03 10:38:28;;;;;;;1.70;0.70;;;13.40;1.00;;;;;;5068338;28;20270;-65
2024/04/03 10:41:15;;;;;;;1.70;0.60;;;13.20;1.00;;;;;;5067590;28;20313;-66
2024/04/03 10:44:01;;;;;;;5.13;1.30;;;12.80;1.00;;;;;;5064444;28;20212;-65
2024/04/03 10:46:49;;;;;;;3.60;1.00;;;13.40;1.00;;;;;;5057853;28;20211;-66
2024/04/03 10:49:35;;;;;;;6.70;1.20;;;13.90;1.00;;;;;;5059229;28;20659;-66
2024/04/03 10:52:23;;;;;;;5.73;0.77;;;13.80;1.00;;;;;;5065761;28;20195;-66
2024/04/03 10:55:10;;;;;;;2.40;0.60;;;13.80;1.00;;;;;;5058882;28;20214;-66
2024/04/03 10:58:01;;;;;;;2.73;0.80;;;13.80;1.00;;;;;;5052165;28;20198;-66
2024/04/03 11:00:48;;;;;;;2.13;0.60;;;14.30;1.00;;;;;;5061830;28;20205;-66
2024/04/03 11:03:38;;;;;;;4.10;0.60;;;14.60;1.00;;;;;;5066662;28;20203;-65
2024/04/03 11:06:24;;;;;;;2.83;1.00;;;14.10;1.00;;;;;;5064389;28;20195;-66
2024/04/03 11:09:11;;;;;;;5.87;1.07;;;13.70;1.00;;;;;;5066339;28;20230;-66
2024/04/03 11:12:02;;;;;;;5.13;0.87;;;13.70;1.00;;;;;;5068801;28;20669;-65
2024/04/03 11:14:56;;;;;;;3.50;0.73;;;14.40;1.00;;;;;;5064546;28;20251;-66
2024/04/03 11:17:42;;;;;;;4.97;0.80;;;14.30;1.00;;;;;;5064438;28;20322;-66
2024/04/03 11:20:31;;;;;;;3.60;0.77;;;13.90;1.00;;;;;;5062149;28;20585;-65
2024/04/03 11:23:17;;;;;;;2.33;0.60;;;13.70;1.00;;;;;;5068546;28;20209;-65
2024/04/03 11:26:04;;;;;;;6.47;0.83;;;14.20;1.00;;;;;;5067378;28;20294;-65
2024/04/03 11:28:52;;;;;;;4.67;0.93;;;14.30;1.00;;;;;;5064716;28;21022;-65
2024/04/03 11:31:39;;;;;;;6.13;0.83;;;14.40;1.00;;;;;;5066255;28;20218;-66
2024/04/03 11:34:27;;;;;;;2.37;0.40;;;15.00;1.00;;;;;;5061977;28;20675;-65
2024/04/03 11:37:14;;;;;;;1.50;0.77;;;15.00;1.00;;;;;;5064167;28;20226;-66
2024/04/03 11:40:01;;;;;;;2.30;0.50;;;14.90;1.00;;;;;;5026938;28;1118933;-65
2024/04/03 11:42:48;;;;;;;5.50;1.00;;;14.20;1.00;;;;;;5059797;28;20194;-65
2024/04/03 11:45:37;;;;;;;2.00;0.57;;;14.00;1.00;;;;;;5065030;28;20198;-65
2024/04/03 11:48:24;;;;;;;1.53;0.50;;;13.90;1.00;;;;;;5066253;28;20658;-65
2024/04/03 11:51:11;;;;;;;5.37;1.03;;;14.50;1.00;;;;;;5060095;28;20551;-64
2024/04/03 11:53:57;;;;;;;2.13;0.60;;;15.10;1.00;;;;;;5066263;28;20192;-65
2024/04/03 11:56:45;;;;;;;5.50;0.80;;;15.50;1.00;;;;;;5064254;28;20682;-65
2024/04/03 11:59:31;;;;;;;4.53;0.90;;;15.20;1.00;;;;;;5068153;28;20215;-65
2024/04/03 12:02:19;;;;;;;2.67;0.80;;;15.30;1.00;;;;;;5066039;28;20224;-65
2024/04/03 12:05:06;;;;;;;6.57;0.90;;;15.60;1.00;;;;;;5064156;28;20618;-65
2024/04/03 12:07:53;;;;;;;7.57;1.63;;;15.10;1.00;;;;;;5061164;28;21984;-67
2024/04/03 12:10:39;;;;;;;2.90;0.70;;;14.80;1.00;;;;;;5061121;28;20682;-66
2024/04/03 12:13:27;;;;;;;3.40;0.53;;;15.10;1.00;;;;;;5068276;28;20686;-65
2024/04/03 12:16:19;;;;;;;3.70;0.90;;;14.70;1.00;;;;;;5057023;28;20233;-64
2024/04/03 12:19:16;;;;;;;6.23;1.00;;;14.80;1.00;;;;;;5061927;28;20207;-65
2024/04/03 12:22:02;;;;;;;4.50;0.70;;;14.70;1.00;;;;;;5064331;28;20210;-65
2024/04/03 12:24:50;;;;;;;4.43;1.03;;;14.80;1.00;;;;;;5062204;28;20230;-65
2024/04/03 12:27:37;;;;;;;4.90;1.00;;;14.80;1.00;;;;;;5067561;28;20741;-66
2024/04/03 12:30:24;;;;;;;5.50;0.83;;;14.60;1.00;;;;;;5069025;28;20195;-65
2024/04/03 12:33:11;;;;;;;4.83;0.83;;;14.70;1.00;;;;;;5065658;28;20205;-66
2024/04/03 12:35:59;;;;;;;4.27;1.10;;;14.60;1.00;;;;;;5069154;28;20220;-65
2024/04/03 12:38:46;;;;;;;3.63;0.70;;;14.60;1.00;;;;;;5062098;28;20274;-65
2024/04/03 12:41:33;;;;;;;2.43;0.87;;;14.40;1.00;;;;;;5066118;28;20234;-66
2024/04/03 12:44:19;;;;;;;1.70;0.70;;;14.30;1.00;;;;;;5066507;28;20210;-65
2024/04/03 12:47:07;;;;;;;3.13;0.80;;;14.20;1.00;;;;;;5062904;28;20203;-65
2024/04/03 12:49:54;;;;;;;4.13;1.20;;;14.30;1.00;;;;;;5065014;28;20683;-65
2024/04/03 12:52:42;;;;;;;2.20;0.87;;;14.60;1.00;;;;;;5068051;28;20607;-65
2024/04/03 12:55:28;;;;;;;1.73;0.90;;;14.60;1.00;;;;;;5057006;28;20377;-67
2024/04/03 12:58:16;;;;;;;2.60;0.80;;;14.50;1.00;;;;;;5065230;28;20219;-65
2024/04/03 13:01:03;;;;;;;2.07;0.70;;;14.70;1.00;;;;;;5062831;28;20211;-65
2024/04/03 13:03:54;;;;;;;3.47;0.83;;;15.50;1.00;;;;;;5064288;28;20604;-65
2024/04/03 13:06:41;;;;;;;5.17;1.40;;;15.20;1.00;;;;;;5064792;28;20197;-65
2024/04/03 13:09:30;;;;;;;2.70;0.80;;;15.50;1.00;;;;;;5057673;28;20193;-65
2024/04/03 13:12:17;;;;;;;8.70;1.00;;;16.00;1.00;;;;;;5059876;28;20287;-65
2024/04/03 13:15:04;;;;;;;1.03;0.50;;;15.90;1.00;;;;;;5065608;28;20216;-65
2024/04/03 13:17:51;;;;;;;4.07;1.63;;;15.60;1.00;;;;;;5066253;28;20199;-65
2024/04/03 13:20:38;;;;;;;3.40;0.73;;;14.80;1.00;;;;;;5064599;28;20681;-66
2024/04/03 13:23:25;;;;;;;4.47;1.30;;;14.50;1.00;;;;;;5063952;28;20715;-67
2024/04/03 13:26:14;;;;;;;5.13;0.90;;;14.30;1.00;;;;;;5065372;28;20222;-64
2024/04/03 13:29:01;;;;;;;2.57;0.70;;;14.20;1.00;;;;;;5060832;28;20215;-66
2024/04/03 13:31:47;;;;;;;6.83;1.37;;;14.30;1.00;;;;;;5062218;28;20337;-66
2024/04/03 13:34:35;;;;;;;4.30;1.10;;;14.20;1.00;;;;;;5066760;28;20199;-66
2024/04/03 13:37:21;;;;;;;6.20;0.90;;;14.40;1.00;;;;;;5053438;28;20204;-67
2024/04/03 13:40:09;;;;;;;2.00;0.77;;;14.40;1.00;;;;;;5070981;28;20229;-65
2024/04/03 13:42:57;;;;;;;6.80;1.20;;;14.50;1.00;;;;;;5061688;28;20287;-65
2024/04/03 13:45:47;;;;;;;10.40;1.50;;;14.40;1.00;;;;;;5064688;28;20571;-65
2024/04/03 13:48:33;;;;;;;3.50;0.90;;;14.70;1.00;;;;;;5064555;28;20211;-65
2024/04/03 13:51:20;;;;;;;4.07;1.10;;;14.70;1.00;;;;;;5065329;28;20203;-65
2024/04/03 13:54:06;;;;;;;2.10;0.80;;;14.60;1.00;;;;;;5058862;28;20199;-66
2024/04/03 13:56:53;;;;;;;1.13;0.53;;;14.80;1.00;;;;;;5059984;28;20702;-66
2024/04/03 13:59:42;;;;;;;4.07;0.90;;;14.70;1.00;;;;;;5071193;28;20571;-66
2024/04/03 14:02:29;;;;;;;3.67;0.93;;;14.50;1.00;;;;;;5062065;28;20203;-66
2024/04/03 14:05:16;;;;;;;11.17;1.97;;;14.80;1.00;;;;;;5063256;28;20192;-66
2024/04/03 14:08:02;;;;;;;2.93;0.90;;;15.70;1.00;;;;;;5059173;28;20200;-66
2024/04/03 14:10:50;;;;;;;2.70;0.90;;;15.70;1.00;;;;;;5056067;28;20217;-66
2024/04/03 14:13:36;;;;;;;8.83;1.10;;;15.10;1.00;;;;;;5059558;28;20258;-64
2024/04/03 14:16:25;;;;;;;3.27;1.00;;;15.00;1.00;;;;;;5062101;28;20216;-65
2024/04/03 14:19:11;;;;;;;5.97;1.10;;;15.00;1.00;;;;;;5062479;28;20216;-65
2024/04/03 14:21:58;;;;;;;3.50;0.90;;;14.70;1.00;;;;;;5065916;28;20205;-66
2024/04/03 14:24:44;;;;;;;6.13;1.17;;;14.90;1.00;;;;;;5063192;28;20207;-66
2024/04/03 14:27:35;;;;;;;4.97;1.00;;;15.10;1.00;;;;;;5067568;28;20199;-67
2024/04/03 14:30:21;;;;;;;2.63;1.00;;;14.90;1.00;;;;;;5065071;28;20254;-65
2024/04/03 14:33:10;;;;;;;2.83;0.93;;;14.70;1.00;;;;;;5064531;28;20226;-66
2024/04/03 14:35:56;;;;;;;0.30;0.30;;;14.90;1.00;;;;;;5062997;28;20228;-65
2024/04/03 14:38:43;;;;;;;4.73;1.10;;;14.50;1.00;;;;;;5061366;28;20211;-65
2024/04/03 14:41:29;;;;;;;2.60;0.70;;;14.50;1.00;;;;;;5062760;28;20232;-65
2024/04/03 14:44:17;;;;;;;2.57;0.70;;;14.70;1.00;;;;;;5057900;28;20310;-66
2024/04/03 14:47:03;;;;;;;4.80;1.10;;;14.70;1.00;;;;;;5066066;28;20655;-65
2024/04/03 14:49:52;;;;;;;1.50;0.60;;;14.80;1.00;;;;;;5067275;28;20196;-65